sensor_id;sensor_type;location;lat;lon;timestamp;P1;durP1;ratioP1;P2;durP2;ratioP2
40150;SDS011;25866;52.420;10.640;2023-06-14T00:01:43;3.20;;;1.50;;
40150;SDS011;25866;52.420;10.640;2023-06-14T00:04:10;4.45;;;1.67;;
40150;SDS011;25866;52.420;10.640;2023-06-14T00:06:42;2.85;;;1.58;;
40150;SDS011;25866;52.420;10.640;2023-06-14T00:09:11;3.20;;;1.83;;
40150;SDS011;25866;52.420;10.640;2023-06-14T00:11:42;1.80;;;1.60;;
40150;SDS011;25866;52.420;10.640;2023-06-14T00:14:08;2.42;;;1.52;;
40150;SDS011;25866;52.420;10.640;2023-06-14T00:16:34;2.90;;;1.52;;
40150;SDS011;25866;52.420;10.640;2023-06-14T00:19:03;2.85;;;1.88;;
40150;SDS011;25866;52.420;10.640;2023-06-14T00:21:29;5.40;;;2.20;;
40150;SDS011;25866;52.420;10.640;2023-06-14T00:23:57;5.82;;;1.90;;
40150;SDS011;25866;52.420;10.640;2023-06-14T00:26:23;4.10;;;1.70;;
40150;SDS011;25866;52.420;10.640;2023-06-14T00:28:51;1.73;;;1.40;;
40150;SDS011;25866;52.420;10.640;2023-06-14T00:31:17;2.85;;;1.40;;
40150;SDS011;25866;52.420;10.640;2023-06-14T00:33:43;8.18;;;1.80;;
40150;SDS011;25866;52.420;10.640;2023-06-14T00:36:09;3.25;;;1.55;;
40150;SDS011;25866;52.420;10.640;2023-06-14T00:38:35;2.47;;;1.77;;
40150;SDS011;25866;52.420;10.640;2023-06-14T00:41:01;2.90;;;1.58;;
40150;SDS011;25866;52.420;10.640;2023-06-14T00:43:27;6.72;;;1.60;;
40150;SDS011;25866;52.420;10.640;2023-06-14T00:45:52;3.25;;;1.55;;
40150;SDS011;25866;52.420;10.640;2023-06-14T00:48:18;2.30;;;1.73;;
40150;SDS011;25866;52.420;10.640;2023-06-14T00:50:45;3.50;;;1.35;;
40150;SDS011;25866;52.420;10.640;2023-06-14T00:53:11;2.20;;;1.58;;
40150;SDS011;25866;52.420;10.640;2023-06-14T00:55:41;5.53;;;1.60;;
40150;SDS011;25866;52.420;10.640;2023-06-14T00:58:07;3.20;;;1.70;;
40150;SDS011;25866;52.420;10.640;2023-06-14T01:00:33;1.90;;;1.58;;
40150;SDS011;25866;52.420;10.640;2023-06-14T01:02:59;2.42;;;1.58;;
40150;SDS011;25866;52.420;10.640;2023-06-14T01:05:26;2.20;;;1.40;;
40150;SDS011;25866;52.420;10.640;2023-06-14T01:10:53;1.85;;;1.30;;
40150;SDS011;25866;52.420;10.640;2023-06-14T01:16:01;3.90;;;1.58;;
40150;SDS011;25866;52.420;10.640;2023-06-14T01:18:28;2.75;;;1.50;;
40150;SDS011;25866;52.420;10.640;2023-06-14T01:20:55;2.70;;;1.80;;
40150;SDS011;25866;52.420;10.640;2023-06-14T01:23:21;4.13;;;1.60;;
40150;SDS011;25866;52.420;10.640;2023-06-14T01:25:48;4.50;;;1.80;;
40150;SDS011;25866;52.420;10.640;2023-06-14T01:28:18;5.10;;;1.60;;
40150;SDS011;25866;52.420;10.640;2023-06-14T01:30:46;3.20;;;1.60;;
40150;SDS011;25866;52.420;10.640;2023-06-14T01:33:19;5.85;;;1.70;;
40150;SDS011;25866;52.420;10.640;2023-06-14T01:35:47;5.05;;;1.58;;
40150;SDS011;25866;52.420;10.640;2023-06-14T01:38:14;2.67;;;1.70;;
40150;SDS011;25866;52.420;10.640;2023-06-14T01:40:42;5.82;;;1.73;;
40150;SDS011;25866;52.420;10.640;2023-06-14T01:43:10;3.45;;;1.60;;
40150;SDS011;25866;52.420;10.640;2023-06-14T01:45:38;4.30;;;1.67;;
40150;SDS011;25866;52.420;10.640;2023-06-14T01:48:05;5.60;;;1.58;;
40150;SDS011;25866;52.420;10.640;2023-06-14T01:50:31;2.17;;;1.40;;
40150;SDS011;25866;52.420;10.640;2023-06-14T01:52:57;6.63;;;1.60;;
40150;SDS011;25866;52.420;10.640;2023-06-14T01:55:23;2.20;;;1.65;;
40150;SDS011;25866;52.420;10.640;2023-06-14T01:57:52;7.15;;;1.58;;
40150;SDS011;25866;52.420;10.640;2023-06-14T02:00:18;3.40;;;1.60;;
40150;SDS011;25866;52.420;10.640;2023-06-14T02:02:44;1.58;;;1.38;;
40150;SDS011;25866;52.420;10.640;2023-06-14T02:05:11;2.47;;;1.60;;
40150;SDS011;25866;52.420;10.640;2023-06-14T02:07:37;3.92;;;1.70;;
40150;SDS011;25866;52.420;10.640;2023-06-14T02:10:03;2.03;;;1.50;;
40150;SDS011;25866;52.420;10.640;2023-06-14T02:12:30;2.10;;;1.52;;
40150;SDS011;25866;52.420;10.640;2023-06-14T02:14:55;5.40;;;1.40;;
40150;SDS011;25866;52.420;10.640;2023-06-14T02:17:21;5.88;;;1.80;;
40150;SDS011;25866;52.420;10.640;2023-06-14T02:19:48;2.08;;;1.52;;
40150;SDS011;25866;52.420;10.640;2023-06-14T02:22:14;6.15;;;1.80;;
40150;SDS011;25866;52.420;10.640;2023-06-14T02:24:41;1.95;;;1.73;;
40150;SDS011;25866;52.420;10.640;2023-06-14T02:27:07;1.77;;;1.42;;
40150;SDS011;25866;52.420;10.640;2023-06-14T02:29:35;2.67;;;1.38;;
40150;SDS011;25866;52.420;10.640;2023-06-14T02:32:01;2.38;;;1.55;;
40150;SDS011;25866;52.420;10.640;2023-06-14T02:34:28;2.97;;;1.60;;
40150;SDS011;25866;52.420;10.640;2023-06-14T02:36:53;6.88;;;1.95;;
40150;SDS011;25866;52.420;10.640;2023-06-14T02:39:20;2.72;;;1.67;;
40150;SDS011;25866;52.420;10.640;2023-06-14T02:41:48;1.73;;;1.52;;
40150;SDS011;25866;52.420;10.640;2023-06-14T02:44:17;2.22;;;1.45;;
40150;SDS011;25866;52.420;10.640;2023-06-14T02:46:44;2.08;;;1.50;;
40150;SDS011;25866;52.420;10.640;2023-06-14T02:49:10;2.65;;;1.77;;
40150;SDS011;25866;52.420;10.640;2023-06-14T02:51:36;1.80;;;1.27;;
40150;SDS011;25866;52.420;10.640;2023-06-14T02:54:02;2.08;;;1.60;;
40150;SDS011;25866;52.420;10.640;2023-06-14T02:56:28;9.75;;;1.67;;
40150;SDS011;25866;52.420;10.640;2023-06-14T02:58:54;3.63;;;1.60;;
40150;SDS011;25866;52.420;10.640;2023-06-14T03:01:24;2.05;;;1.48;;
40150;SDS011;25866;52.420;10.640;2023-06-14T03:03:58;3.95;;;1.48;;
40150;SDS011;25866;52.420;10.640;2023-06-14T03:06:25;3.28;;;1.77;;
40150;SDS011;25866;52.420;10.640;2023-06-14T03:08:50;2.75;;;1.60;;
40150;SDS011;25866;52.420;10.640;2023-06-14T03:11:18;2.85;;;1.88;;
40150;SDS011;25866;52.420;10.640;2023-06-14T03:13:45;4.80;;;1.58;;
40150;SDS011;25866;52.420;10.640;2023-06-14T03:16:12;3.65;;;1.92;;
40150;SDS011;25866;52.420;10.640;2023-06-14T03:18:40;6.75;;;2.00;;
40150;SDS011;25866;52.420;10.640;2023-06-14T03:21:05;2.20;;;1.80;;
40150;SDS011;25866;52.420;10.640;2023-06-14T03:23:33;2.53;;;1.60;;
40150;SDS011;25866;52.420;10.640;2023-06-14T03:25:59;3.85;;;1.60;;
40150;SDS011;25866;52.420;10.640;2023-06-14T03:28:25;3.42;;;1.63;;
40150;SDS011;25866;52.420;10.640;2023-06-14T03:30:51;4.50;;;1.50;;
40150;SDS011;25866;52.420;10.640;2023-06-14T03:33:16;2.38;;;1.58;;
40150;SDS011;25866;52.420;10.640;2023-06-14T03:35:42;2.20;;;1.48;;
40150;SDS011;25866;52.420;10.640;2023-06-14T03:38:08;1.98;;;1.50;;
40150;SDS011;25866;52.420;10.640;2023-06-14T03:40:34;3.22;;;1.67;;
40150;SDS011;25866;52.420;10.640;2023-06-14T03:43:00;2.15;;;1.60;;
40150;SDS011;25866;52.420;10.640;2023-06-14T03:45:26;3.15;;;1.67;;
40150;SDS011;25866;52.420;10.640;2023-06-14T03:47:51;6.82;;;1.95;;
40150;SDS011;25866;52.420;10.640;2023-06-14T03:50:17;4.78;;;1.73;;
40150;SDS011;25866;52.420;10.640;2023-06-14T03:52:44;3.33;;;1.70;;
40150;SDS011;25866;52.420;10.640;2023-06-14T03:55:10;2.17;;;1.35;;
40150;SDS011;25866;52.420;10.640;2023-06-14T03:57:38;1.88;;;1.40;;
40150;SDS011;25866;52.420;10.640;2023-06-14T04:00:04;1.88;;;1.48;;
40150;SDS011;25866;52.420;10.640;2023-06-14T04:02:31;4.40;;;1.88;;
40150;SDS011;25866;52.420;10.640;2023-06-14T04:04:56;3.65;;;1.75;;
40150;SDS011;25866;52.420;10.640;2023-06-14T04:07:23;2.85;;;1.90;;
40150;SDS011;25866;52.420;10.640;2023-06-14T04:09:50;1.90;;;1.40;;
40150;SDS011;25866;52.420;10.640;2023-06-14T04:12:15;4.60;;;1.80;;
40150;SDS011;25866;52.420;10.640;2023-06-14T04:14:41;4.78;;;1.95;;
40150;SDS011;25866;52.420;10.640;2023-06-14T04:17:07;2.38;;;1.70;;
40150;SDS011;25866;52.420;10.640;2023-06-14T04:19:32;2.40;;;1.70;;
40150;SDS011;25866;52.420;10.640;2023-06-14T04:21:58;2.13;;;1.60;;
40150;SDS011;25866;52.420;10.640;2023-06-14T04:24:26;3.83;;;1.83;;
40150;SDS011;25866;52.420;10.640;2023-06-14T04:26:57;3.55;;;1.80;;
40150;SDS011;25866;52.420;10.640;2023-06-14T04:29:24;3.53;;;1.52;;
40150;SDS011;25866;52.420;10.640;2023-06-14T04:31:51;5.63;;;1.80;;
40150;SDS011;25866;52.420;10.640;2023-06-14T04:34:19;5.18;;;1.80;;
40150;SDS011;25866;52.420;10.640;2023-06-14T04:36:46;2.00;;;1.77;;
40150;SDS011;25866;52.420;10.640;2023-06-14T04:39:21;3.75;;;1.60;;
40150;SDS011;25866;52.420;10.640;2023-06-14T04:41:50;4.47;;;1.65;;
40150;SDS011;25866;52.420;10.640;2023-06-14T04:44:18;3.20;;;1.80;;
40150;SDS011;25866;52.420;10.640;2023-06-14T04:46:47;4.65;;;1.80;;
40150;SDS011;25866;52.420;10.640;2023-06-14T04:49:14;2.30;;;1.83;;
40150;SDS011;25866;52.420;10.640;2023-06-14T04:51:41;5.93;;;2.60;;
40150;SDS011;25866;52.420;10.640;2023-06-14T04:54:08;3.05;;;2.00;;
40150;SDS011;25866;52.420;10.640;2023-06-14T04:56:43;3.92;;;1.80;;
40150;SDS011;25866;52.420;10.640;2023-06-14T04:59:10;3.58;;;1.80;;
40150;SDS011;25866;52.420;10.640;2023-06-14T05:01:40;3.90;;;1.98;;
40150;SDS011;25866;52.420;10.640;2023-06-14T05:04:05;4.47;;;1.98;;
40150;SDS011;25866;52.420;10.640;2023-06-14T05:06:31;3.35;;;1.90;;
40150;SDS011;25866;52.420;10.640;2023-06-14T05:08:58;6.13;;;2.03;;
40150;SDS011;25866;52.420;10.640;2023-06-14T05:11:23;3.25;;;1.80;;
40150;SDS011;25866;52.420;10.640;2023-06-14T05:13:49;3.42;;;1.98;;
40150;SDS011;25866;52.420;10.640;2023-06-14T05:16:16;4.18;;;2.08;;
40150;SDS011;25866;52.420;10.640;2023-06-14T05:18:44;4.03;;;1.98;;
40150;SDS011;25866;52.420;10.640;2023-06-14T05:21:12;4.35;;;1.90;;
40150;SDS011;25866;52.420;10.640;2023-06-14T05:23:42;5.80;;;2.08;;
40150;SDS011;25866;52.420;10.640;2023-06-14T05:26:09;4.13;;;2.13;;
40150;SDS011;25866;52.420;10.640;2023-06-14T05:28:36;8.30;;;2.13;;
40150;SDS011;25866;52.420;10.640;2023-06-14T05:31:02;2.85;;;2.10;;
40150;SDS011;25866;52.420;10.640;2023-06-14T05:33:28;4.43;;;2.03;;
40150;SDS011;25866;52.420;10.640;2023-06-14T05:35:54;2.72;;;2.03;;
40150;SDS011;25866;52.420;10.640;2023-06-14T05:38:20;7.75;;;2.20;;
40150;SDS011;25866;52.420;10.640;2023-06-14T05:40:46;3.88;;;2.30;;
40150;SDS011;25866;52.420;10.640;2023-06-14T05:43:12;6.43;;;2.20;;
40150;SDS011;25866;52.420;10.640;2023-06-14T05:45:37;4.57;;;2.50;;
40150;SDS011;25866;52.420;10.640;2023-06-14T05:48:03;5.15;;;2.30;;
40150;SDS011;25866;52.420;10.640;2023-06-14T05:50:30;3.28;;;2.25;;
40150;SDS011;25866;52.420;10.640;2023-06-14T05:52:56;3.60;;;1.92;;
40150;SDS011;25866;52.420;10.640;2023-06-14T05:55:21;3.65;;;2.33;;
40150;SDS011;25866;52.420;10.640;2023-06-14T05:57:47;4.32;;;2.30;;
40150;SDS011;25866;52.420;10.640;2023-06-14T06:00:13;3.92;;;2.67;;
40150;SDS011;25866;52.420;10.640;2023-06-14T06:02:41;3.88;;;2.47;;
40150;SDS011;25866;52.420;10.640;2023-06-14T06:05:08;4.78;;;2.63;;
40150;SDS011;25866;52.420;10.640;2023-06-14T06:07:35;2.85;;;2.25;;
40150;SDS011;25866;52.420;10.640;2023-06-14T06:10:02;5.22;;;2.45;;
40150;SDS011;25866;52.420;10.640;2023-06-14T06:12:28;3.20;;;2.28;;
40150;SDS011;25866;52.420;10.640;2023-06-14T06:14:54;2.70;;;2.03;;
40150;SDS011;25866;52.420;10.640;2023-06-14T06:17:20;6.30;;;2.63;;
40150;SDS011;25866;52.420;10.640;2023-06-14T06:19:46;5.60;;;2.55;;
40150;SDS011;25866;52.420;10.640;2023-06-14T06:22:12;7.15;;;2.15;;
40150;SDS011;25866;52.420;10.640;2023-06-14T06:24:38;4.78;;;2.22;;
40150;SDS011;25866;52.420;10.640;2023-06-14T06:27:03;2.65;;;2.03;;
40150;SDS011;25866;52.420;10.640;2023-06-14T06:29:29;2.83;;;2.00;;
40150;SDS011;25866;52.420;10.640;2023-06-14T06:31:55;6.35;;;2.65;;
40150;SDS011;25866;52.420;10.640;2023-06-14T06:34:21;5.88;;;2.35;;
40150;SDS011;25866;52.420;10.640;2023-06-14T06:36:47;4.78;;;2.33;;
40150;SDS011;25866;52.420;10.640;2023-06-14T06:39:13;4.00;;;2.15;;
40150;SDS011;25866;52.420;10.640;2023-06-14T06:41:39;4.57;;;2.25;;
40150;SDS011;25866;52.420;10.640;2023-06-14T06:44:05;3.95;;;2.15;;
40150;SDS011;25866;52.420;10.640;2023-06-14T06:46:34;2.95;;;2.17;;
40150;SDS011;25866;52.420;10.640;2023-06-14T06:49:00;3.95;;;2.58;;
40150;SDS011;25866;52.420;10.640;2023-06-14T06:51:26;4.20;;;2.00;;
40150;SDS011;25866;52.420;10.640;2023-06-14T06:53:52;4.35;;;2.10;;
40150;SDS011;25866;52.420;10.640;2023-06-14T06:56:19;4.78;;;2.40;;
40150;SDS011;25866;52.420;10.640;2023-06-14T06:58:45;5.25;;;2.72;;
40150;SDS011;25866;52.420;10.640;2023-06-14T07:01:11;2.53;;;2.05;;
40150;SDS011;25866;52.420;10.640;2023-06-14T07:03:38;2.67;;;2.30;;
40150;SDS011;25866;52.420;10.640;2023-06-14T07:06:03;4.63;;;1.80;;
40150;SDS011;25866;52.420;10.640;2023-06-14T07:08:29;3.97;;;2.40;;
40150;SDS011;25866;52.420;10.640;2023-06-14T07:10:55;2.17;;;1.98;;
40150;SDS011;25866;52.420;10.640;2023-06-14T07:13:21;2.45;;;2.08;;
40150;SDS011;25866;52.420;10.640;2023-06-14T07:15:46;2.95;;;2.20;;
40150;SDS011;25866;52.420;10.640;2023-06-14T07:18:12;2.92;;;2.15;;
40150;SDS011;25866;52.420;10.640;2023-06-14T07:20:39;3.33;;;2.10;;
40150;SDS011;25866;52.420;10.640;2023-06-14T07:23:05;4.25;;;2.05;;
40150;SDS011;25866;52.420;10.640;2023-06-14T07:25:31;2.60;;;2.20;;
40150;SDS011;25866;52.420;10.640;2023-06-14T07:27:56;4.15;;;1.92;;
40150;SDS011;25866;52.420;10.640;2023-06-14T07:30:22;3.90;;;2.20;;
40150;SDS011;25866;52.420;10.640;2023-06-14T07:32:51;3.05;;;2.05;;
40150;SDS011;25866;52.420;10.640;2023-06-14T07:35:18;3.05;;;1.92;;
40150;SDS011;25866;52.420;10.640;2023-06-14T07:37:44;2.33;;;1.85;;
40150;SDS011;25866;52.420;10.640;2023-06-14T07:40:12;2.83;;;1.67;;
40150;SDS011;25866;52.420;10.640;2023-06-14T07:42:38;2.25;;;1.83;;
40150;SDS011;25866;52.420;10.640;2023-06-14T07:45:04;2.17;;;1.80;;
40150;SDS011;25866;52.420;10.640;2023-06-14T07:47:30;4.88;;;1.95;;
40150;SDS011;25866;52.420;10.640;2023-06-14T07:49:56;2.85;;;2.10;;
40150;SDS011;25866;52.420;10.640;2023-06-14T07:52:22;3.08;;;1.90;;
40150;SDS011;25866;52.420;10.640;2023-06-14T07:54:48;2.17;;;1.90;;
40150;SDS011;25866;52.420;10.640;2023-06-14T07:57:14;3.55;;;2.03;;
40150;SDS011;25866;52.420;10.640;2023-06-14T07:59:40;2.60;;;2.00;;
40150;SDS011;25866;52.420;10.640;2023-06-14T08:02:06;2.47;;;1.77;;
40150;SDS011;25866;52.420;10.640;2023-06-14T08:04:32;2.90;;;1.80;;
40150;SDS011;25866;52.420;10.640;2023-06-14T08:06:59;3.15;;;2.10;;
40150;SDS011;25866;52.420;10.640;2023-06-14T08:09:25;2.53;;;1.80;;
40150;SDS011;25866;52.420;10.640;2023-06-14T08:11:53;2.90;;;2.03;;
40150;SDS011;25866;52.420;10.640;2023-06-14T08:14:19;3.58;;;1.80;;
40150;SDS011;25866;52.420;10.640;2023-06-14T08:16:48;3.10;;;1.85;;
40150;SDS011;25866;52.420;10.640;2023-06-14T08:19:14;1.80;;;1.70;;
40150;SDS011;25866;52.420;10.640;2023-06-14T08:21:41;2.33;;;1.80;;
40150;SDS011;25866;52.420;10.640;2023-06-14T08:24:08;6.35;;;1.98;;
40150;SDS011;25866;52.420;10.640;2023-06-14T08:26:37;2.22;;;1.67;;
40150;SDS011;25866;52.420;10.640;2023-06-14T08:29:04;2.40;;;1.85;;
40150;SDS011;25866;52.420;10.640;2023-06-14T08:31:32;2.10;;;1.88;;
40150;SDS011;25866;52.420;10.640;2023-06-14T08:33:58;3.58;;;2.10;;
40150;SDS011;25866;52.420;10.640;2023-06-14T08:36:24;2.75;;;1.90;;
40150;SDS011;25866;52.420;10.640;2023-06-14T08:38:50;2.75;;;1.77;;
40150;SDS011;25866;52.420;10.640;2023-06-14T08:41:20;2.45;;;2.00;;
40150;SDS011;25866;52.420;10.640;2023-06-14T08:43:48;2.30;;;1.90;;
40150;SDS011;25866;52.420;10.640;2023-06-14T08:46:14;3.75;;;2.05;;
40150;SDS011;25866;52.420;10.640;2023-06-14T08:48:46;5.00;;;1.90;;
40150;SDS011;25866;52.420;10.640;2023-06-14T08:51:15;2.35;;;1.73;;
40150;SDS011;25866;52.420;10.640;2023-06-14T08:53:52;3.00;;;2.40;;
40150;SDS011;25866;52.420;10.640;2023-06-14T08:56:24;4.43;;;1.90;;
40150;SDS011;25866;52.420;10.640;2023-06-14T08:58:51;2.15;;;1.80;;
40150;SDS011;25866;52.420;10.640;2023-06-14T09:01:17;3.13;;;1.90;;
40150;SDS011;25866;52.420;10.640;2023-06-14T09:03:44;2.83;;;2.00;;
40150;SDS011;25866;52.420;10.640;2023-06-14T09:06:10;6.93;;;2.15;;
40150;SDS011;25866;52.420;10.640;2023-06-14T09:08:45;2.83;;;1.63;;
40150;SDS011;25866;52.420;10.640;2023-06-14T09:11:12;3.42;;;1.70;;
40150;SDS011;25866;52.420;10.640;2023-06-14T09:13:39;2.42;;;1.83;;
40150;SDS011;25866;52.420;10.640;2023-06-14T09:16:06;2.17;;;1.60;;
40150;SDS011;25866;52.420;10.640;2023-06-14T09:18:36;2.65;;;1.73;;
40150;SDS011;25866;52.420;10.640;2023-06-14T09:21:03;3.15;;;1.65;;
40150;SDS011;25866;52.420;10.640;2023-06-14T09:23:33;2.53;;;1.80;;
40150;SDS011;25866;52.420;10.640;2023-06-14T09:26:06;4.03;;;1.80;;
40150;SDS011;25866;52.420;10.640;2023-06-14T09:28:36;2.40;;;2.00;;
40150;SDS011;25866;52.420;10.640;2023-06-14T09:31:06;4.38;;;1.90;;
40150;SDS011;25866;52.420;10.640;2023-06-14T09:33:33;2.60;;;2.15;;
40150;SDS011;25866;52.420;10.640;2023-06-14T09:35:59;3.50;;;1.88;;
40150;SDS011;25866;52.420;10.640;2023-06-14T09:38:25;5.75;;;1.77;;
40150;SDS011;25866;52.420;10.640;2023-06-14T09:40:51;2.80;;;1.98;;
40150;SDS011;25866;52.420;10.640;2023-06-14T09:43:17;2.45;;;1.65;;
40150;SDS011;25866;52.420;10.640;2023-06-14T09:45:44;4.50;;;2.33;;
40150;SDS011;25866;52.420;10.640;2023-06-14T09:48:13;3.58;;;1.83;;
40150;SDS011;25866;52.420;10.640;2023-06-14T09:50:44;2.50;;;1.90;;
40150;SDS011;25866;52.420;10.640;2023-06-14T09:53:12;4.72;;;1.80;;
40150;SDS011;25866;52.420;10.640;2023-06-14T09:55:40;4.38;;;1.70;;
40150;SDS011;25866;52.420;10.640;2023-06-14T09:58:07;3.63;;;2.00;;
40150;SDS011;25866;52.420;10.640;2023-06-14T10:00:35;1.83;;;1.60;;
40150;SDS011;25866;52.420;10.640;2023-06-14T10:03:11;3.63;;;1.80;;
40150;SDS011;25866;52.420;10.640;2023-06-14T10:05:41;4.68;;;2.42;;
40150;SDS011;25866;52.420;10.640;2023-06-14T10:08:10;4.97;;;1.92;;
40150;SDS011;25866;52.420;10.640;2023-06-14T10:10:42;5.68;;;2.22;;
40150;SDS011;25866;52.420;10.640;2023-06-14T10:13:09;4.22;;;2.25;;
40150;SDS011;25866;52.420;10.640;2023-06-14T10:15:47;3.63;;;2.10;;
40150;SDS011;25866;52.420;10.640;2023-06-14T10:21:33;6.18;;;2.60;;
40150;SDS011;25866;52.420;10.640;2023-06-14T10:24:18;4.18;;;2.53;;
40150;SDS011;25866;52.420;10.640;2023-06-14T10:26:56;4.03;;;2.42;;
40150;SDS011;25866;52.420;10.640;2023-06-14T10:29:23;4.15;;;2.25;;
40150;SDS011;25866;52.420;10.640;2023-06-14T10:31:50;3.90;;;2.40;;
40150;SDS011;25866;52.420;10.640;2023-06-14T10:34:24;2.83;;;2.45;;
40150;SDS011;25866;52.420;10.640;2023-06-14T10:37:06;4.60;;;2.55;;
40150;SDS011;25866;52.420;10.640;2023-06-14T10:39:42;4.25;;;2.60;;
40150;SDS011;25866;52.420;10.640;2023-06-14T10:42:10;3.60;;;2.33;;
40150;SDS011;25866;52.420;10.640;2023-06-14T10:44:38;3.97;;;2.70;;
40150;SDS011;25866;52.420;10.640;2023-06-14T10:47:13;2.97;;;2.45;;
40150;SDS011;25866;52.420;10.640;2023-06-14T10:50:27;4.70;;;2.60;;
40150;SDS011;25866;52.420;10.640;2023-06-14T10:52:46;4.93;;;2.30;;
40150;SDS011;25866;52.420;10.640;2023-06-14T10:55:15;5.85;;;2.60;;
40150;SDS011;25866;52.420;10.640;2023-06-14T10:57:48;7.13;;;2.83;;
40150;SDS011;25866;52.420;10.640;2023-06-14T11:00:27;6.70;;;2.83;;
40150;SDS011;25866;52.420;10.640;2023-06-14T11:05:53;3.13;;;2.50;;
40150;SDS011;25866;52.420;10.640;2023-06-14T11:08:27;6.25;;;2.65;;
40150;SDS011;25866;52.420;10.640;2023-06-14T11:11:10;4.63;;;2.42;;
40150;SDS011;25866;52.420;10.640;2023-06-14T11:13:42;3.75;;;2.63;;
40150;SDS011;25866;52.420;10.640;2023-06-14T11:16:10;5.50;;;2.47;;
40150;SDS011;25866;52.420;10.640;2023-06-14T11:18:37;9.13;;;2.40;;
40150;SDS011;25866;52.420;10.640;2023-06-14T11:21:03;5.03;;;2.30;;
40150;SDS011;25866;52.420;10.640;2023-06-14T11:23:29;5.15;;;2.65;;
40150;SDS011;25866;52.420;10.640;2023-06-14T11:25:55;6.53;;;2.60;;
40150;SDS011;25866;52.420;10.640;2023-06-14T11:28:21;4.93;;;2.53;;
40150;SDS011;25866;52.420;10.640;2023-06-14T11:30:49;3.60;;;2.22;;
40150;SDS011;25866;52.420;10.640;2023-06-14T11:33:24;5.22;;;2.40;;
40150;SDS011;25866;52.420;10.640;2023-06-14T11:35:51;5.32;;;2.28;;
40150;SDS011;25866;52.420;10.640;2023-06-14T11:38:17;3.35;;;2.63;;
40150;SDS011;25866;52.420;10.640;2023-06-14T11:40:43;7.22;;;2.55;;
40150;SDS011;25866;52.420;10.640;2023-06-14T11:43:09;4.75;;;2.47;;
40150;SDS011;25866;52.420;10.640;2023-06-14T11:45:35;6.38;;;2.38;;
40150;SDS011;25866;52.420;10.640;2023-06-14T11:48:00;5.22;;;2.47;;
40150;SDS011;25866;52.420;10.640;2023-06-14T11:50:26;9.80;;;2.60;;
40150;SDS011;25866;52.420;10.640;2023-06-14T11:52:56;3.10;;;2.17;;
40150;SDS011;25866;52.420;10.640;2023-06-14T11:55:25;2.72;;;2.20;;
40150;SDS011;25866;52.420;10.640;2023-06-14T11:57:51;4.45;;;2.28;;
40150;SDS011;25866;52.420;10.640;2023-06-14T12:00:18;4.63;;;2.30;;
40150;SDS011;25866;52.420;10.640;2023-06-14T12:02:55;6.50;;;2.33;;
40150;SDS011;25866;52.420;10.640;2023-06-14T12:05:22;5.20;;;2.60;;
40150;SDS011;25866;52.420;10.640;2023-06-14T12:07:48;4.55;;;2.70;;
40150;SDS011;25866;52.420;10.640;2023-06-14T12:10:15;6.85;;;2.55;;
40150;SDS011;25866;52.420;10.640;2023-06-14T12:12:42;6.38;;;2.70;;
40150;SDS011;25866;52.420;10.640;2023-06-14T12:15:09;4.53;;;2.55;;
40150;SDS011;25866;52.420;10.640;2023-06-14T12:17:38;6.68;;;2.50;;
40150;SDS011;25866;52.420;10.640;2023-06-14T12:22:38;3.63;;;2.30;;
40150;SDS011;25866;52.420;10.640;2023-06-14T12:25:11;5.30;;;2.55;;
40150;SDS011;25866;52.420;10.640;2023-06-14T12:27:52;6.07;;;2.47;;
40150;SDS011;25866;52.420;10.640;2023-06-14T12:30:21;5.05;;;2.40;;
40150;SDS011;25866;52.420;10.640;2023-06-14T12:32:47;5.88;;;2.50;;
40150;SDS011;25866;52.420;10.640;2023-06-14T12:35:13;2.85;;;2.35;;
40150;SDS011;25866;52.420;10.640;2023-06-14T12:37:40;5.65;;;2.50;;
40150;SDS011;25866;52.420;10.640;2023-06-14T12:40:06;4.30;;;2.20;;
40150;SDS011;25866;52.420;10.640;2023-06-14T12:42:32;3.65;;;2.63;;
40150;SDS011;25866;52.420;10.640;2023-06-14T12:44:59;9.45;;;2.60;;
40150;SDS011;25866;52.420;10.640;2023-06-14T12:47:25;6.32;;;2.38;;
40150;SDS011;25866;52.420;10.640;2023-06-14T12:49:51;6.15;;;2.40;;
40150;SDS011;25866;52.420;10.640;2023-06-14T12:52:16;7.45;;;2.30;;
40150;SDS011;25866;52.420;10.640;2023-06-14T12:54:42;4.63;;;2.70;;
40150;SDS011;25866;52.420;10.640;2023-06-14T12:57:08;5.68;;;2.70;;
40150;SDS011;25866;52.420;10.640;2023-06-14T12:59:34;6.40;;;2.33;;
40150;SDS011;25866;52.420;10.640;2023-06-14T13:02:10;7.88;;;2.80;;
40150;SDS011;25866;52.420;10.640;2023-06-14T13:04:41;4.97;;;2.55;;
40150;SDS011;25866;52.420;10.640;2023-06-14T13:07:06;4.05;;;2.38;;
40150;SDS011;25866;52.420;10.640;2023-06-14T13:09:32;3.90;;;2.40;;
40150;SDS011;25866;52.420;10.640;2023-06-14T13:11:58;9.63;;;2.60;;
40150;SDS011;25866;52.420;10.640;2023-06-14T13:14:23;6.20;;;2.72;;
40150;SDS011;25866;52.420;10.640;2023-06-14T13:16:49;9.73;;;2.50;;
40150;SDS011;25866;52.420;10.640;2023-06-14T13:19:15;5.35;;;2.42;;
40150;SDS011;25866;52.420;10.640;2023-06-14T13:21:41;7.43;;;2.83;;
40150;SDS011;25866;52.420;10.640;2023-06-14T13:24:07;7.35;;;2.92;;
40150;SDS011;25866;52.420;10.640;2023-06-14T13:26:33;5.30;;;2.70;;
40150;SDS011;25866;52.420;10.640;2023-06-14T13:28:59;7.57;;;2.70;;
40150;SDS011;25866;52.420;10.640;2023-06-14T13:31:25;9.10;;;2.83;;
40150;SDS011;25866;52.420;10.640;2023-06-14T13:33:50;11.15;;;2.67;;
40150;SDS011;25866;52.420;10.640;2023-06-14T13:36:16;5.68;;;2.85;;
40150;SDS011;25866;52.420;10.640;2023-06-14T13:38:42;5.70;;;2.40;;
40150;SDS011;25866;52.420;10.640;2023-06-14T13:41:08;9.25;;;2.97;;
40150;SDS011;25866;52.420;10.640;2023-06-14T13:43:34;4.85;;;2.35;;
40150;SDS011;25866;52.420;10.640;2023-06-14T13:45:59;6.28;;;2.60;;
40150;SDS011;25866;52.420;10.640;2023-06-14T13:48:25;5.40;;;2.78;;
40150;SDS011;25866;52.420;10.640;2023-06-14T13:50:51;8.52;;;2.63;;
40150;SDS011;25866;52.420;10.640;2023-06-14T13:53:17;5.38;;;2.60;;
40150;SDS011;25866;52.420;10.640;2023-06-14T13:55:43;6.78;;;2.53;;
40150;SDS011;25866;52.420;10.640;2023-06-14T13:58:09;4.57;;;2.42;;
40150;SDS011;25866;52.420;10.640;2023-06-14T14:00:35;8.52;;;2.88;;
40150;SDS011;25866;52.420;10.640;2023-06-14T14:03:05;6.70;;;2.63;;
40150;SDS011;25866;52.420;10.640;2023-06-14T14:05:32;2.80;;;2.58;;
40150;SDS011;25866;52.420;10.640;2023-06-14T14:07:57;4.88;;;2.25;;
40150;SDS011;25866;52.420;10.640;2023-06-14T14:10:26;7.93;;;2.58;;
40150;SDS011;25866;52.420;10.640;2023-06-14T14:12:52;6.30;;;2.58;;
40150;SDS011;25866;52.420;10.640;2023-06-14T14:15:19;6.18;;;2.83;;
40150;SDS011;25866;52.420;10.640;2023-06-14T14:17:45;5.75;;;2.90;;
40150;SDS011;25866;52.420;10.640;2023-06-14T14:20:12;5.72;;;2.80;;
40150;SDS011;25866;52.420;10.640;2023-06-14T14:22:41;4.05;;;2.50;;
40150;SDS011;25866;52.420;10.640;2023-06-14T14:25:07;8.48;;;2.50;;
40150;SDS011;25866;52.420;10.640;2023-06-14T14:27:35;5.72;;;2.60;;
40150;SDS011;25866;52.420;10.640;2023-06-14T14:30:00;6.28;;;2.53;;
40150;SDS011;25866;52.420;10.640;2023-06-14T14:32:26;6.95;;;2.72;;
40150;SDS011;25866;52.420;10.640;2023-06-14T14:34:52;9.05;;;2.97;;
40150;SDS011;25866;52.420;10.640;2023-06-14T14:37:18;3.10;;;2.58;;
40150;SDS011;25866;52.420;10.640;2023-06-14T14:39:44;5.95;;;3.63;;
40150;SDS011;25866;52.420;10.640;2023-06-14T14:42:11;4.45;;;2.60;;
40150;SDS011;25866;52.420;10.640;2023-06-14T14:44:37;3.22;;;2.20;;
40150;SDS011;25866;52.420;10.640;2023-06-14T14:47:04;2.97;;;2.40;;
40150;SDS011;25866;52.420;10.640;2023-06-14T14:49:30;5.28;;;2.70;;